Time;durP1;ratioP1;P1;durP2;ratioP2;P2;SDS_P1;SDS_P2;PMS_P1;PMS_P2;Temp;Humidity;BMP_temperature;BMP_pressure;BME280_temperature;BME280_humidity;BME280_pressure;Samples;Min_cycle;Max_cycle;Signal;HPM_P1;HPM_P2
2022/10/29 00:02:06;;;;;;;10.23;5.63;;;;;;;;;;5097636;28;20256;-66
2022/10/29 00:04:35;;;;;;;11.10;5.30;;;;;;;;;;5097649;28;20332;-65
2022/10/29 00:07:02;;;;;;;11.43;5.67;;;;;;;;;;5097788;28;20288;-66
2022/10/29 00:09:30;;;;;;;10.20;5.17;;;;;;;;;;5097587;28;20708;-66
2022/10/29 00:11:58;;;;;;;10.93;5.47;;;;;;;;;;5099812;28;20608;-66
2022/10/29 00:14:25;;;;;;;11.07;5.53;;;;;;;;;;5101486;28;20271;-66
2022/10/29 00:16:55;;;;;;;14.27;5.07;;;;;;;;;;5101725;28;20225;-66
2022/10/29 00:19:22;;;;;;;10.70;5.70;;;;;;;;;;5101363;28;20288;-66
2022/10/29 00:21:51;;;;;;;14.93;5.90;;;;;;;;;;5101666;28;20240;-66
2022/10/29 00:24:19;;;;;;;10.00;4.67;;;;;;;;;;5101379;28;20229;-66
2022/10/29 00:26:47;;;;;;;9.40;5.00;;;;;;;;;;5101759;28;20236;-65
2022/10/29 00:29:14;;;;;;;10.80;5.30;;;;;;;;;;5100985;28;20292;-66
2022/10/29 00:31:42;;;;;;;10.03;5.10;;;;;;;;;;5101521;28;20241;-66
2022/10/29 00:34:10;;;;;;;8.33;5.23;;;;;;;;;;5101348;28;20280;-66
2022/10/29 00:36:38;;;;;;;9.67;5.07;;;;;;;;;;5101426;28;20206;-67
2022/10/29 00:39:07;;;;;;;16.13;5.30;;;;;;;;;;5100926;28;20237;-66
2022/10/29 00:41:34;;;;;;;11.20;5.13;;;;;;;;;;5101149;28;20664;-67
2022/10/29 00:44:21;;;;;;;10.30;5.17;;;;;;;;;;5100879;28;20279;-65
2022/10/29 00:46:50;;;;;;;11.53;5.40;;;;;;;;;;5101196;28;20247;-66
2022/10/29 00:49:18;;;;;;;10.27;5.63;;;;;;;;;;5100972;28;20206;-67
2022/10/29 00:51:46;;;;;;;10.87;5.20;;;;;;;;;;5101077;28;20696;-66
2022/10/29 00:54:18;;;;;;;9.83;5.40;;;;;;;;;;5100497;28;20252;-66
2022/10/29 00:56:48;;;;;;;15.43;5.40;;;;;;;;;;5101044;28;20213;-66
2022/10/29 00:59:16;;;;;;;12.63;5.93;;;;;;;;;;5097387;28;20288;-66
2022/10/29 01:01:44;;;;;;;12.17;5.97;;;;;;;;;;5097558;28;20253;-66
2022/10/29 01:04:13;;;;;;;13.93;6.43;;;;;;;;;;5100654;28;20225;-66
2022/10/29 01:06:41;;;;;;;9.67;5.17;;;;;;;;;;5100729;28;20209;-66
2022/10/29 01:09:09;;;;;;;15.77;5.80;;;;;;;;;;5100466;28;20201;-66
2022/10/29 01:11:46;;;;;;;11.87;6.00;;;;;;;;;;5100689;28;20198;-67
2022/10/29 01:14:18;;;;;;;12.93;5.90;;;;;;;;;;5100167;28;20647;-66
2022/10/29 01:16:47;;;;;;;14.60;6.70;;;;;;;;;;5100452;28;20637;-66
2022/10/29 01:19:20;;;;;;;11.10;5.63;;;;;;;;;;5100024;28;20197;-66
2022/10/29 01:21:51;;;;;;;12.50;6.10;;;;;;;;;;5100082;28;20304;-66
2022/10/29 01:24:46;;;;;;;13.60;6.07;;;;;;;;;;5099845;28;20582;-66
2022/10/29 01:27:36;;;;;;;9.90;5.93;;;;;;;;;;5100126;28;20318;-66
2022/10/29 01:30:08;;;;;;;10.57;5.80;;;;;;;;;;5099924;28;20210;-66
2022/10/29 01:32:43;;;;;;;11.37;5.80;;;;;;;;;;5100080;28;20538;-67
2022/10/29 01:35:14;;;;;;;12.57;6.47;;;;;;;;;;5100079;28;20252;-67
2022/10/29 01:37:46;;;;;;;11.47;6.10;;;;;;;;;;5100219;28;20252;-67
2022/10/29 01:40:17;;;;;;;14.63;6.27;;;;;;;;;;5099915;28;20244;-66
2022/10/29 01:42:46;;;;;;;11.27;5.70;;;;;;;;;;5088219;28;20312;-66
2022/10/29 01:45:17;;;;;;;10.20;5.80;;;;;;;;;;5099752;28;20358;-66
2022/10/29 01:47:49;;;;;;;12.97;7.07;;;;;;;;;;5100098;28;20266;-66
2022/10/29 01:50:19;;;;;;;14.97;6.30;;;;;;;;;;5099767;28;20264;-66
2022/10/29 01:52:47;;;;;;;11.63;5.77;;;;;;;;;;5100120;28;20232;-66
2022/10/29 01:55:16;;;;;;;19.10;7.43;;;;;;;;;;5099624;28;20269;-66
2022/10/29 01:57:44;;;;;;;14.57;5.90;;;;;;;;;;5099818;28;20240;-66
2022/10/29 02:00:14;;;;;;;18.67;6.47;;;;;;;;;;5099177;28;20241;-66
2022/10/29 02:02:51;;;;;;;10.00;5.90;;;;;;;;;;5099751;28;20217;-66
2022/10/29 02:05:24;;;;;;;10.57;6.00;;;;;;;;;;5099634;28;20336;-66
2022/10/29 02:07:54;;;;;;;13.17;6.10;;;;;;;;;;5099570;28;20237;-66
2022/10/29 02:10:26;;;;;;;11.17;6.10;;;;;;;;;;5099706;28;20231;-66
2022/10/29 02:12:54;;;;;;;15.23;6.33;;;;;;;;;;5099291;28;20233;-66
2022/10/29 02:15:25;;;;;;;12.87;6.40;;;;;;;;;;5098916;28;20229;-66
2022/10/29 02:17:58;;;;;;;11.37;6.47;;;;;;;;;;5099141;28;20201;-66
2022/10/29 02:20:25;;;;;;;20.13;6.37;;;;;;;;;;5099875;28;20240;-65
2022/10/29 02:22:53;;;;;;;15.10;6.60;;;;;;;;;;5098955;28;20776;-66
2022/10/29 02:25:21;;;;;;;14.57;7.30;;;;;;;;;;5099048;28;20569;-65
2022/10/29 02:27:49;;;;;;;13.47;8.23;;;;;;;;;;5099414;28;20206;-66
2022/10/29 02:30:17;;;;;;;20.13;9.40;;;;;;;;;;5098784;28;20292;-66
2022/10/29 02:32:44;;;;;;;15.60;8.87;;;;;;;;;;5099142;28;20658;-66
2022/10/29 02:35:16;;;;;;;16.87;9.00;;;;;;;;;;5098406;28;20261;-65
2022/10/29 02:37:44;;;;;;;12.70;8.17;;;;;;;;;;5098984;28;20216;-66
2022/10/29 02:40:12;;;;;;;14.70;7.93;;;;;;;;;;5099012;28;20236;-65
2022/10/29 02:42:40;;;;;;;19.80;9.77;;;;;;;;;;5085808;28;20632;-66
2022/10/29 02:45:08;;;;;;;16.03;7.20;;;;;;;;;;5098565;28;20225;-66
2022/10/29 02:47:36;;;;;;;15.30;8.70;;;;;;;;;;5098871;28;20209;-66
2022/10/29 02:50:04;;;;;;;13.23;6.93;;;;;;;;;;5098563;28;20213;-66
2022/10/29 02:52:33;;;;;;;13.83;7.00;;;;;;;;;;5098687;28;20233;-66
2022/10/29 02:55:00;;;;;;;13.83;6.83;;;;;;;;;;5098464;28;20245;-66
2022/10/29 02:57:28;;;;;;;13.87;7.20;;;;;;;;;;5098470;28;20637;-66
2022/10/29 02:59:55;;;;;;;11.47;6.90;;;;;;;;;;5098365;28;20252;-65
2022/10/29 03:02:23;;;;;;;15.33;7.70;;;;;;;;;;5098439;28;20235;-66
2022/10/29 03:04:51;;;;;;;14.80;10.07;;;;;;;;;;5098189;28;20225;-65
2022/10/29 03:07:19;;;;;;;16.27;7.17;;;;;;;;;;5098503;28;20237;-66
2022/10/29 03:09:48;;;;;;;13.53;7.80;;;;;;;;;;5098452;28;20202;-65
2022/10/29 03:12:15;;;;;;;14.57;8.40;;;;;;;;;;5098410;28;20247;-66
2022/10/29 03:14:43;;;;;;;12.30;7.13;;;;;;;;;;5097731;28;20256;-66
2022/10/29 03:17:11;;;;;;;16.17;7.87;;;;;;;;;;5098068;28;20217;-66
2022/10/29 03:19:41;;;;;;;16.07;8.50;;;;;;;;;;5098287;28;20595;-66
2022/10/29 03:22:10;;;;;;;12.83;7.53;;;;;;;;;;5098375;28;20231;-65
2022/10/29 03:24:38;;;;;;;14.97;7.93;;;;;;;;;;5097660;28;20261;-65
2022/10/29 03:27:07;;;;;;;18.47;8.00;;;;;;;;;;5098262;28;20237;-66
2022/10/29 03:29:35;;;;;;;13.37;7.17;;;;;;;;;;5097550;28;20619;-66
2022/10/29 03:32:02;;;;;;;18.23;7.70;;;;;;;;;;5097974;28;20241;-65
2022/10/29 03:34:30;;;;;;;13.20;8.03;;;;;;;;;;5097974;28;20585;-66
2022/10/29 03:36:58;;;;;;;18.67;7.70;;;;;;;;;;5098105;28;20263;-66
2022/10/29 03:39:25;;;;;;;12.23;6.90;;;;;;;;;;5097743;28;20237;-66
2022/10/29 03:41:53;;;;;;;14.30;7.37;;;;;;;;;;5097976;28;20209;-67
2022/10/29 03:44:22;;;;;;;14.40;7.33;;;;;;;;;;5097375;28;20307;-66
2022/10/29 03:46:49;;;;;;;13.43;7.53;;;;;;;;;;5097938;28;20201;-66
2022/10/29 03:49:17;;;;;;;16.27;7.40;;;;;;;;;;5097652;28;20315;-66
2022/10/29 03:51:45;;;;;;;12.17;6.60;;;;;;;;;;5097927;28;20209;-66
2022/10/29 03:54:13;;;;;;;12.87;7.07;;;;;;;;;;5097541;28;20754;-65
2022/10/29 03:56:41;;;;;;;18.87;8.13;;;;;;;;;;5097892;28;20237;-65
2022/10/29 03:59:11;;;;;;;14.53;7.63;;;;;;;;;;5097674;28;20202;-65
2022/10/29 04:01:40;;;;;;;12.83;7.57;;;;;;;;;;5097227;28;20198;-66
2022/10/29 04:04:09;;;;;;;13.80;7.27;;;;;;;;;;5097401;28;20310;-65
2022/10/29 04:06:36;;;;;;;9.80;7.80;;;;;;;;;;5097780;28;20229;-65
2022/10/29 04:09:04;;;;;;;12.30;8.23;;;;;;;;;;5097496;28;20632;-66
2022/10/29 04:11:32;;;;;;;11.47;6.87;;;;;;;;;;5097462;28;20233;-66
2022/10/29 04:13:59;;;;;;;18.40;7.93;;;;;;;;;;5097516;28;20267;-66
2022/10/29 04:16:27;;;;;;;15.37;7.17;;;;;;;;;;5097395;28;20247;-66
2022/10/29 04:18:56;;;;;;;11.10;6.67;;;;;;;;;;5097711;28;20236;-66
2022/10/29 04:21:24;;;;;;;13.63;7.57;;;;;;;;;;5097649;28;20240;-65
2022/10/29 04:24:11;;;;;;;15.40;7.50;;;;;;;;;;5096974;28;20308;-65
2022/10/29 04:26:59;;;;;;;12.60;7.80;;;;;;;;;;5097192;28;20269;-65
2022/10/29 04:29:47;;;;;;;12.47;7.13;;;;;;;;;;5096976;28;20211;-66
2022/10/29 04:32:14;;;;;;;21.70;7.73;;;;;;;;;;5097268;28;20248;-65
2022/10/29 04:34:44;;;;;;;14.60;7.30;;;;;;;;;;5097533;28;20257;-65
2022/10/29 04:37:14;;;;;;;14.80;7.80;;;;;;;;;;5097241;28;20688;-65
2022/10/29 04:39:42;;;;;;;13.87;7.20;;;;;;;;;;5097406;28;20248;-66
2022/10/29 04:42:10;;;;;;;11.30;7.27;;;;;;;;;;5097366;28;20244;-65
2022/10/29 04:44:37;;;;;;;14.60;7.07;;;;;;;;;;5097071;28;20240;-66
2022/10/29 04:47:05;;;;;;;14.77;8.40;;;;;;;;;;5096960;28;20245;-65
2022/10/29 04:49:33;;;;;;;18.00;8.00;;;;;;;;;;5097453;28;20340;-65
2022/10/29 04:52:02;;;;;;;13.03;7.63;;;;;;;;;;5097009;28;20241;-65
2022/10/29 04:54:29;;;;;;;11.87;8.03;;;;;;;;;;5096989;28;20261;-65
2022/10/29 04:56:57;;;;;;;17.63;7.13;;;;;;;;;;5097805;28;20240;-66
2022/10/29 04:59:25;;;;;;;15.13;7.97;;;;;;;;;;5100666;28;20273;-65
2022/10/29 05:01:52;;;;;;;12.23;6.67;;;;;;;;;;5100545;28;20665;-65
2022/10/29 05:04:20;;;;;;;15.07;7.07;;;;;;;;;;5100791;28;20232;-65
2022/10/29 05:06:47;;;;;;;13.23;7.93;;;;;;;;;;5100845;28;20269;-65
2022/10/29 05:09:16;;;;;;;10.43;6.80;;;;;;;;;;5100452;28;20304;-65
2022/10/29 05:11:44;;;;;;;12.33;7.10;;;;;;;;;;5100717;28;20338;-65
2022/10/29 05:14:12;;;;;;;12.53;7.87;;;;;;;;;;5100152;28;20319;-66
2022/10/29 05:16:40;;;;;;;15.43;7.27;;;;;;;;;;5100558;28;20281;-65
2022/10/29 05:19:07;;;;;;;14.33;7.63;;;;;;;;;;5100503;28;20634;-65
2022/10/29 05:21:35;;;;;;;13.70;7.47;;;;;;;;;;5100525;28;20236;-65
2022/10/29 05:24:03;;;;;;;12.63;7.27;;;;;;;;;;5100225;28;20226;-65
2022/10/29 05:26:32;;;;;;;9.40;7.03;;;;;;;;;;5100432;28;20241;-66
2022/10/29 05:28:59;;;;;;;15.03;7.30;;;;;;;;;;5100002;28;20264;-65
2022/10/29 05:31:27;;;;;;;13.23;7.20;;;;;;;;;;5100159;28;20237;-66
2022/10/29 05:33:54;;;;;;;14.27;7.63;;;;;;;;;;5100216;28;20228;-65
2022/10/29 05:36:22;;;;;;;15.07;6.57;;;;;;;;;;5100234;28;20273;-66
2022/10/29 05:38:50;;;;;;;17.07;7.63;;;;;;;;;;5099705;28;20288;-66
2022/10/29 05:41:18;;;;;;;15.67;7.47;;;;;;;;;;5100089;28;20233;-66
2022/10/29 05:43:49;;;;;;;13.93;6.60;;;;;;;;;;5099388;28;20256;-66
2022/10/29 05:46:17;;;;;;;16.00;7.50;;;;;;;;;;5100025;28;20259;-66
2022/10/29 05:48:44;;;;;;;13.53;7.13;;;;;;;;;;5099587;28;20237;-66
2022/10/29 05:51:12;;;;;;;18.00;7.80;;;;;;;;;;5099908;28;20237;-66
2022/10/29 05:53:40;;;;;;;16.43;7.10;;;;;;;;;;5099646;28;20264;-66
2022/10/29 05:56:07;;;;;;;13.60;7.70;;;;;;;;;;5099599;28;20723;-66
2022/10/29 05:58:35;;;;;;;13.83;7.47;;;;;;;;;;5099230;28;20264;-66
2022/10/29 06:01:07;;;;;;;12.73;6.90;;;;;;;;;;5099745;28;20237;-66
2022/10/29 06:03:34;;;;;;;9.70;6.90;;;;;;;;;;5099659;28;20236;-65
2022/10/29 06:06:02;;;;;;;12.67;6.67;;;;;;;;;;5099398;28;20241;-66
2022/10/29 06:08:30;;;;;;;24.13;8.00;;;;;;;;;;5098182;28;20216;-66
2022/10/29 06:11:00;;;;;;;14.43;7.57;;;;;;;;;;5099694;28;20297;-66
2022/10/29 06:13:28;;;;;;;13.77;7.67;;;;;;;;;;5099252;28;20261;-66
2022/10/29 06:15:57;;;;;;;14.07;7.33;;;;;;;;;;5099080;28;20241;-66
2022/10/29 06:18:26;;;;;;;12.70;7.40;;;;;;;;;;5099178;28;20202;-66
2022/10/29 06:20:54;;;;;;;18.87;7.70;;;;;;;;;;5099318;28;20237;-65
2022/10/29 06:23:21;;;;;;;14.93;7.67;;;;;;;;;;5098791;28;20295;-66
2022/10/29 06:25:49;;;;;;;17.33;7.50;;;;;;;;;;5099110;28;20261;-66
2022/10/29 06:28:17;;;;;;;14.17;7.30;;;;;;;;;;5098786;28;20576;-66
2022/10/29 06:30:46;;;;;;;14.87;8.93;;;;;;;;;;5099043;28;20209;-66
2022/10/29 06:33:16;;;;;;;11.53;6.93;;;;;;;;;;5098767;28;20233;-66
2022/10/29 06:35:48;;;;;;;11.13;7.17;;;;;;;;;;5098630;28;20239;-66
2022/10/29 06:38:16;;;;;;;16.17;6.77;;;;;;;;;;5098594;28;20206;-66
2022/10/29 06:40:51;;;;;;;13.83;7.53;;;;;;;;;;5098789;28;20288;-66
2022/10/29 06:43:19;;;;;;;14.27;7.60;;;;;;;;;;5098728;28;20271;-66
2022/10/29 06:45:48;;;;;;;11.73;7.07;;;;;;;;;;5098561;28;20309;-66
2022/10/29 06:48:16;;;;;;;13.37;6.83;;;;;;;;;;5098492;28;20244;-65
2022/10/29 06:50:50;;;;;;;12.47;7.77;;;;;;;;;;5098458;28;20209;-65
2022/10/29 06:53:18;;;;;;;12.73;8.20;;;;;;;;;;5098421;28;20240;-66
2022/10/29 06:55:46;;;;;;;12.50;8.00;;;;;;;;;;5098434;28;20242;-66
2022/10/29 06:58:15;;;;;;;19.17;7.60;;;;;;;;;;5098466;28;20669;-66
2022/10/29 07:00:43;;;;;;;15.80;7.47;;;;;;;;;;5098174;28;20612;-65
2022/10/29 07:03:12;;;;;;;12.33;7.10;;;;;;;;;;5098128;28;20312;-66
2022/10/29 07:05:43;;;;;;;15.90;6.40;;;;;;;;;;5098270;28;20312;-66
2022/10/29 07:08:15;;;;;;;12.90;7.33;;;;;;;;;;5098020;28;20740;-66
2022/10/29 07:10:42;;;;;;;10.83;6.53;;;;;;;;;;5098046;28;20259;-66
2022/10/29 07:13:10;;;;;;;14.30;6.50;;;;;;;;;;5097907;28;20611;-66
2022/10/29 07:15:38;;;;;;;14.73;6.57;;;;;;;;;;5097929;28;20316;-66
2022/10/29 07:18:07;;;;;;;13.00;6.67;;;;;;;;;;5098138;28;20677;-66
2022/10/29 07:20:35;;;;;;;10.00;6.90;;;;;;;;;;5097794;28;20244;-66
2022/10/29 07:23:03;;;;;;;15.93;6.77;;;;;;;;;;5097680;28;20240;-66
2022/10/29 07:25:32;;;;;;;16.73;6.70;;;;;;;;;;5098191;28;20723;-66
2022/10/29 07:28:02;;;;;;;13.17;7.00;;;;;;;;;;5098079;28;20648;-66
2022/10/29 07:30:30;;;;;;;13.40;6.60;;;;;;;;;;5097759;28;20205;-66
2022/10/29 07:32:58;;;;;;;16.27;6.70;;;;;;;;;;5098024;28;20291;-66
2022/10/29 07:35:25;;;;;;;11.93;7.83;;;;;;;;;;5097964;28;20240;-66
2022/10/29 07:37:57;;;;;;;18.17;7.27;;;;;;;;;;5097795;28;20240;-65
2022/10/29 07:40:30;;;;;;;12.63;6.57;;;;;;;;;;5097779;28;20713;-65
2022/10/29 07:42:59;;;;;;;20.53;7.47;;;;;;;;;;5097967;28;20665;-65
2022/10/29 07:45:27;;;;;;;15.83;7.10;;;;;;;;;;5097530;28;20317;-65
2022/10/29 07:48:01;;;;;;;13.03;6.70;;;;;;;;;;5097821;28;20635;-64
2022/10/29 07:50:30;;;;;;;14.43;6.97;;;;;;;;;;5097465;28;20207;-65
2022/10/29 07:52:59;;;;;;;14.03;7.63;;;;;;;;;;5097990;28;20206;-65
2022/10/29 07:55:27;;;;;;;16.07;7.27;;;;;;;;;;5097432;28;20237;-65
2022/10/29 07:58:01;;;;;;;13.97;6.90;;;;;;;;;;5097809;28;20770;-65
2022/10/29 08:00:29;;;;;;;11.33;6.60;;;;;;;;;;5084105;28;20305;-63
2022/10/29 08:02:57;;;;;;;13.60;6.73;;;;;;;;;;5097576;28;20233;-66
2022/10/29 08:05:25;;;;;;;10.67;6.87;;;;;;;;;;5097564;28;20261;-65
2022/10/29 08:07:53;;;;;;;10.10;6.87;;;;;;;;;;5097209;28;20293;-66
2022/10/29 08:10:22;;;;;;;12.43;7.13;;;;;;;;;;5097513;28;20209;-65
2022/10/29 08:12:50;;;;;;;14.00;7.10;;;;;;;;;;5097205;28;20214;-66
2022/10/29 08:15:19;;;;;;;13.70;6.87;;;;;;;;;;5096874;28;20225;-66
2022/10/29 08:17:47;;;;;;;18.40;8.03;;;;;;;;;;5097162;28;20252;-64
2022/10/29 08:20:15;;;;;;;11.47;6.93;;;;;;;;;;5097379;28;20206;-65
2022/10/29 08:22:43;;;;;;;14.17;6.70;;;;;;;;;;5096830;28;20241;-65
2022/10/29 08:25:11;;;;;;;13.33;8.27;;;;;;;;;;5097258;28;20272;-65
2022/10/29 08:27:39;;;;;;;17.37;7.40;;;;;;;;;;5097208;28;20278;-64
2022/10/29 08:30:07;;;;;;;14.10;7.17;;;;;;;;;;5096703;28;20673;-65
2022/10/29 08:32:36;;;;;;;12.33;6.57;;;;;;;;;;5098542;28;20321;-65
2022/10/29 08:35:04;;;;;;;12.27;6.27;;;;;;;;;;5101206;28;20229;-65
2022/10/29 08:37:32;;;;;;;15.70;6.80;;;;;;;;;;5100943;28;20233;-64
2022/10/29 08:39:59;;;;;;;15.50;6.97;;;;;;;;;;5100908;28;20631;-64
2022/10/29 08:42:37;;;;;;;13.73;7.13;;;;;;;;;;5100963;28;20237;-65
2022/10/29 08:45:18;;;;;;;10.40;5.83;;;;;;;;;;5100689;28;20233;-65
2022/10/29 08:47:53;;;;;;;11.27;5.57;;;;;;;;;;5100795;28;20236;-66
2022/10/29 08:50:24;;;;;;;12.53;6.43;;;;;;;;;;5100611;28;20240;-64
2022/10/29 08:52:52;;;;;;;11.60;6.10;;;;;;;;;;5100510;28;20288;-65
2022/10/29 08:55:39;;;;;;;12.43;6.00;;;;;;;;;;5100463;28;20237;-65
2022/10/29 08:58:14;;;;;;;12.83;6.33;;;;;;;;;;5100676;28;20279;-64
2022/10/29 09:00:43;;;;;;;11.57;5.27;;;;;;;;;;5100409;28;20259;-65
2022/10/29 09:03:14;;;;;;;13.53;6.10;;;;;;;;;;5100443;28;20267;-66
2022/10/29 09:05:49;;;;;;;13.13;5.60;;;;;;;;;;5100567;28;20230;-66
2022/10/29 09:08:23;;;;;;;10.77;5.77;;;;;;;;;;5100525;28;20217;-67
2022/10/29 09:10:53;;;;;;;16.07;5.97;;;;;;;;;;5100426;28;20217;-66
2022/10/29 09:13:37;;;;;;;15.97;6.83;;;;;;;;;;5100326;28;20233;-66
2022/10/29 09:16:16;;;;;;;13.97;6.83;;;;;;;;;;5100531;28;20696;-66
2022/10/29 09:18:55;;;;;;;11.63;6.27;;;;;;;;;;5090432;28;20308;-66
2022/10/29 09:21:28;;;;;;;16.07;6.57;;;;;;;;;;5100423;28;20201;-65
2022/10/29 09:24:02;;;;;;;12.00;6.03;;;;;;;;;;5099955;28;20590;-64
2022/10/29 09:26:30;;;;;;;15.27;6.33;;;;;;;;;;5087777;28;21523;-64
2022/10/29 09:29:10;;;;;;;14.70;6.10;;;;;;;;;;5099993;28;20206;-66
2022/10/29 09:31:41;;;;;;;10.27;5.57;;;;;;;;;;5099999;28;20236;-66
2022/10/29 09:34:16;;;;;;;14.37;5.63;;;;;;;;;;5100357;28;20232;-66
2022/10/29 09:36:45;;;;;;;11.83;6.23;;;;;;;;;;5100826;28;20722;-66
2022/10/29 09:39:14;;;;;;;12.57;6.00;;;;;;;;;;5100077;28;20206;-65
2022/10/29 09:41:42;;;;;;;11.37;5.90;;;;;;;;;;5100009;28;20288;-65
2022/10/29 09:44:14;;;;;;;15.63;6.20;;;;;;;;;;5099376;28;20233;-64
2022/10/29 09:46:46;;;;;;;18.10;6.10;;;;;;;;;;5099860;28;20268;-65
2022/10/29 09:49:21;;;;;;;12.23;5.77;;;;;;;;;;5099983;28;20240;-66
2022/10/29 09:51:50;;;;;;;10.33;6.10;;;;;;;;;;5099889;28;20648;-65
2022/10/29 09:54:18;;;;;;;13.27;5.70;;;;;;;;;;5099231;28;20268;-66
2022/10/29 09:56:46;;;;;;;14.30;5.83;;;;;;;;;;5099696;28;20233;-65
2022/10/29 09:59:24;;;;;;;12.63;5.73;;;;;;;;;;5099236;28;20272;-64
2022/10/29 10:01:52;;;;;;;12.70;5.87;;;;;;;;;;5099798;28;20286;-64
2022/10/29 10:04:27;;;;;;;12.80;5.80;;;;;;;;;;5099688;28;20627;-64
2022/10/29 10:07:03;;;;;;;13.73;5.73;;;;;;;;;;5099556;28;20225;-65
2022/10/29 10:09:49;;;;;;;17.63;6.23;;;;;;;;;;5099477;28;20243;-65
2022/10/29 10:12:17;;;;;;;9.00;5.27;;;;;;;;;;5099325;28;20288;-65
2022/10/29 10:14:45;;;;;;;11.53;5.73;;;;;;;;;;5098894;28;20313;-65
2022/10/29 10:17:13;;;;;;;10.93;5.57;;;;;;;;;;5099170;28;20305;-64
2022/10/29 10:19:47;;;;;;;12.43;6.10;;;;;;;;;;5100032;28;20214;-65
2022/10/29 10:22:19;;;;;;;12.13;5.73;;;;;;;;;;5099451;28;20216;-66
2022/10/29 10:24:47;;;;;;;15.10;5.97;;;;;;;;;;5099354;28;20254;-65
2022/10/29 10:27:25;;;;;;;9.13;6.10;;;;;;;;;;5098887;28;20259;-66
2022/10/29 10:30:06;;;;;;;12.03;5.83;;;;;;;;;;5098699;28;20297;-65
2022/10/29 10:32:33;;;;;;;12.20;5.47;;;;;;;;;;5099285;28;20285;-65
2022/10/29 10:35:03;;;;;;;10.73;5.17;;;;;;;;;;5098948;28;20312;-65
2022/10/29 10:37:31;;;;;;;9.00;5.30;;;;;;;;;;5099104;28;20205;-65
2022/10/29 10:40:01;;;;;;;12.07;5.60;;;;;;;;;;5099099;28;20540;-65
2022/10/29 10:42:31;;;;;;;8.90;4.90;;;;;;;;;;5098833;28;20239;-65
2022/10/29 10:44:59;;;;;;;10.37;4.53;;;;;;;;;;5098727;28;20252;-66
2022/10/29 10:47:29;;;;;;;9.33;5.70;;;;;;;;;;5098937;28;20312;-66
2022/10/29 10:50:09;;;;;;;10.47;4.70;;;;;;;;;;5098885;28;20249;-65
2022/10/29 10:52:37;;;;;;;14.73;5.03;;;;;;;;;;5098681;28;20233;-64
2022/10/29 10:55:07;;;;;;;14.00;4.77;;;;;;;;;;5097963;28;20658;-66
2022/10/29 10:57:37;;;;;;;11.10;5.43;;;;;;;;;;5098577;28;20621;-66
2022/10/29 11:00:06;;;;;;;6.33;4.17;;;;;;;;;;5098423;28;20243;-66
2022/10/29 11:02:39;;;;;;;16.63;4.80;;;;;;;;;;5098248;28;20204;-66
2022/10/29 11:05:14;;;;;;;17.77;4.80;;;;;;;;;;5098318;28;20647;-66
2022/10/29 11:07:45;;;;;;;12.63;4.40;;;;;;;;;;5098467;28;20261;-66
2022/10/29 11:10:14;;;;;;;10.07;4.80;;;;;;;;;;5098455;28;20632;-66
2022/10/29 11:12:44;;;;;;;9.13;4.60;;;;;;;;;;5098668;28;20682;-66
2022/10/29 11:15:15;;;;;;;10.53;4.73;;;;;;;;;;5098642;28;20714;-66
2022/10/29 11:17:47;;;;;;;7.30;4.13;;;;;;;;;;5087616;28;20198;-66
2022/10/29 11:20:24;;;;;;;11.47;4.83;;;;;;;;;;5098279;28;20269;-66
2022/10/29 11:22:59;;;;;;;14.80;3.87;;;;;;;;;;5098157;28;20244;-66
2022/10/29 11:25:30;;;;;;;7.87;3.93;;;;;;;;;;5098041;28;20202;-66
2022/10/29 11:27:59;;;;;;;8.07;4.00;;;;;;;;;;5097804;28;20648;-66
2022/10/29 11:30:29;;;;;;;7.63;3.70;;;;;;;;;;5098108;28;20239;-66
2022/10/29 11:32:59;;;;;;;13.53;4.23;;;;;;;;;;5097933;28;20642;-66
2022/10/29 11:35:36;;;;;;;10.40;4.00;;;;;;;;;;5098510;28;20573;-66
2022/10/29 11:38:06;;;;;;;10.60;3.90;;;;;;;;;;5097793;28;20235;-66
2022/10/29 11:40:36;;;;;;;8.87;3.63;;;;;;;;;;5097840;28;20211;-66
2022/10/29 11:43:09;;;;;;;5.90;3.10;;;;;;;;;;5097914;28;20637;-66
2022/10/29 11:45:40;;;;;;;9.30;3.33;;;;;;;;;;5097566;28;20202;-67
2022/10/29 11:48:15;;;;;;;10.57;3.60;;;;;;;;;;5097735;28;20316;-66
2022/10/29 11:50:53;;;;;;;9.17;3.10;;;;;;;;;;5097961;28;20201;-66
2022/10/29 11:53:31;;;;;;;11.53;3.30;;;;;;;;;;5097918;28;20228;-66
2022/10/29 11:56:04;;;;;;;15.03;4.33;;;;;;;;;;5097725;28;20601;-66
2022/10/29 11:58:33;;;;;;;9.23;4.00;;;;;;;;;;5097604;28;20229;-66
2022/10/29 12:01:09;;;;;;;6.97;3.77;;;;;;;;;;5097634;28;20205;-66
2022/10/29 12:03:53;;;;;;;7.60;3.37;;;;;;;;;;5097910;28;20230;-66
2022/10/29 12:06:26;;;;;;;7.70;3.53;;;;;;;;;;5097818;28;20721;-66
2022/10/29 12:08:58;;;;;;;5.67;3.03;;;;;;;;;;5101224;28;20592;-66
2022/10/29 12:11:31;;;;;;;7.83;3.43;;;;;;;;;;5101399;28;20241;-66
2022/10/29 12:14:01;;;;;;;5.53;3.33;;;;;;;;;;5101433;28;20227;-66
2022/10/29 12:16:33;;;;;;;14.97;5.40;;;;;;;;;;5101471;28;20259;-66
2022/10/29 12:19:06;;;;;;;11.20;3.90;;;;;;;;;;5101711;28;20241;-66
2022/10/29 12:21:41;;;;;;;8.87;3.60;;;;;;;;;;5088039;28;20269;-66
2022/10/29 12:24:17;;;;;;;8.17;3.00;;;;;;;;;;5101231;28;20261;-66
2022/10/29 12:26:48;;;;;;;8.10;3.00;;;;;;;;;;5101163;28;20239;-67
2022/10/29 12:29:19;;;;;;;6.33;3.40;;;;;;;;;;5100904;28;20249;-66
2022/10/29 12:31:51;;;;;;;8.77;3.53;;;;;;;;;;5101677;28;20242;-66
2022/10/29 12:34:23;;;;;;;6.47;3.00;;;;;;;;;;5101333;28;20257;-66
2022/10/29 12:36:56;;;;;;;6.37;3.40;;;;;;;;;;5101071;28;20205;-66
2022/10/29 12:39:26;;;;;;;7.70;2.53;;;;;;;;;;5101256;28;20243;-66
2022/10/29 12:41:57;;;;;;;9.90;3.70;;;;;;;;;;5101169;28;20233;-66
2022/10/29 12:44:28;;;;;;;6.40;2.57;;;;;;;;;;5100624;28;20310;-66
2022/10/29 12:46:59;;;;;;;12.57;3.90;;;;;;;;;;5101123;28;20248;-66
2022/10/29 12:49:33;;;;;;;10.17;3.17;;;;;;;;;;5101117;28;20236;-66
2022/10/29 12:52:04;;;;;;;8.03;3.13;;;;;;;;;;5101079;28;20292;-66
2022/10/29 12:54:36;;;;;;;9.80;3.20;;;;;;;;;;5100715;28;20592;-67
2022/10/29 12:57:05;;;;;;;6.97;3.47;;;;;;;;;;5100990;28;20240;-66
2022/10/29 12:59:34;;;;;;;6.67;3.40;;;;;;;;;;5100565;28;20206;-66
2022/10/29 13:02:19;;;;;;;7.13;3.20;;;;;;;;;;5100635;28;20239;-66
2022/10/29 13:05:05;;;;;;;6.30;3.10;;;;;;;;;;5100904;28;20226;-66
2022/10/29 13:07:35;;;;;;;7.33;2.83;;;;;;;;;;5100382;28;20299;-66
2022/10/29 13:10:21;;;;;;;6.87;2.90;;;;;;;;;;5100897;28;20198;-66
2022/10/29 13:12:59;;;;;;;8.60;2.90;;;;;;;;;;5100535;28;20619;-66
2022/10/29 13:15:28;;;;;;;4.67;2.93;;;;;;;;;;5100738;28;20213;-66
2022/10/29 13:17:57;;;;;;;7.60;3.13;;;;;;;;;;5099771;28;20632;-66
2022/10/29 13:20:28;;;;;;;9.40;3.83;;;;;;;;;;5096879;28;20654;-66
2022/10/29 13:22:58;;;;;;;6.00;3.77;;;;;;;;;;5100040;28;20263;-66
2022/10/29 13:25:50;;;;;;;7.27;3.03;;;;;;;;;;5100537;28;20236;-66
2022/10/29 13:28:36;;;;;;;11.20;3.33;;;;;;;;;;5089532;28;20267;-67
2022/10/29 13:31:22;;;;;;;6.47;2.93;;;;;;;;;;5100412;28;20246;-65
2022/10/29 13:33:51;;;;;;;5.03;2.57;;;;;;;;;;5099805;28;20268;-66
2022/10/29 13:36:36;;;;;;;8.63;3.40;;;;;;;;;;5100262;28;20199;-65
2022/10/29 13:39:17;;;;;;;6.53;2.80;;;;;;;;;;5100030;28;20240;-66
2022/10/29 13:41:49;;;;;;;13.40;3.27;;;;;;;;;;5100005;28;20201;-66
2022/10/29 13:44:19;;;;;;;7.97;2.57;;;;;;;;;;5086986;28;20271;-66
2022/10/29 13:46:49;;;;;;;6.23;3.07;;;;;;;;;;5099875;28;20237;-67
2022/10/29 13:49:18;;;;;;;5.67;2.67;;;;;;;;;;5099618;28;20257;-67
2022/10/29 13:51:54;;;;;;;7.87;2.50;;;;;;;;;;5099858;28;20237;-66
2022/10/29 13:54:29;;;;;;;7.50;2.63;;;;;;;;;;5099776;28;20222;-67
2022/10/29 13:56:59;;;;;;;10.97;3.10;;;;;;;;;;5100091;28;20209;-66
2022/10/29 13:59:36;;;;;;;7.53;2.40;;;;;;;;;;5099592;28;20234;-67
2022/10/29 14:02:27;;;;;;;5.87;2.87;;;;;;;;;;5099586;28;20204;-66
2022/10/29 14:04:56;;;;;;;4.57;2.33;;;;;;;;;;5084045;28;20229;-66
2022/10/29 14:07:26;;;;;;;8.80;3.07;;;;;;;;;;5099306;28;20235;-65
2022/10/29 14:09:56;;;;;;;5.13;2.67;;;;;;;;;;5099658;28;20713;-67
2022/10/29 14:12:26;;;;;;;4.40;2.27;;;;;;;;;;5099470;28;20207;-66
2022/10/29 14:14:58;;;;;;;4.30;2.60;;;;;;;;;;5098841;28;20258;-66
2022/10/29 14:17:25;;;;;;;9.70;2.90;;;;;;;;;;5099031;28;20282;-66
2022/10/29 14:19:53;;;;;;;5.83;2.30;;;;;;;;;;5098875;28;20203;-66
2022/10/29 14:22:29;;;;;;;5.40;2.33;;;;;;;;;;5098867;28;20247;-66
2022/10/29 14:24:59;;;;;;;5.97;2.73;;;;;;;;;;5098889;28;20265;-66
2022/10/29 14:27:26;;;;;;;9.63;2.87;;;;;;;;;;5099202;28;20207;-66
2022/10/29 14:30:09;;;;;;;4.00;2.30;;;;;;;;;;5098155;28;20288;-67
2022/10/29 14:32:38;;;;;;;5.43;3.00;;;;;;;;;;5098707;28;20240;-66
2022/10/29 14:35:06;;;;;;;5.57;3.50;;;;;;;;;;5098813;28;20249;-66
2022/10/29 14:37:35;;;;;;;6.50;2.40;;;;;;;;;;5099200;28;20672;-67
2022/10/29 14:40:06;;;;;;;6.23;2.43;;;;;;;;;;5098909;28;20246;-67
2022/10/29 14:42:35;;;;;;;8.77;2.87;;;;;;;;;;5098861;28;20212;-65
2022/10/29 14:45:04;;;;;;;4.93;2.27;;;;;;;;;;5098471;28;20276;-65
2022/10/29 14:47:33;;;;;;;7.90;2.50;;;;;;;;;;5098821;28;20677;-66
2022/10/29 14:50:02;;;;;;;5.90;2.77;;;;;;;;;;5098691;28;20227;-67
2022/10/29 14:52:32;;;;;;;9.17;2.80;;;;;;;;;;5098580;28;20207;-66
2022/10/29 14:55:02;;;;;;;4.97;2.00;;;;;;;;;;5098350;28;20238;-65